createdAt,value
2022-11-16T00:02:04.200Z,10.5
2022-11-16T00:07:04.177Z,10.5
2022-11-16T00:12:04.150Z,10.5
2022-11-16T00:17:04.142Z,10.5
2022-11-16T00:22:04.123Z,10.5
2022-11-16T00:27:04.103Z,10.5
2022-11-16T00:32:04.073Z,10.4
2022-11-16T00:37:04.058Z,10.4
2022-11-16T00:42:04.034Z,10.4
2022-11-16T00:47:04.011Z,10.4
2022-11-16T00:52:03.993Z,10.4
2022-11-16T00:57:03.973Z,10.3
2022-11-16T01:02:03.959Z,10.3
2022-11-16T01:07:03.937Z,10.3
2022-11-16T01:12:03.917Z,10.4
2022-11-16T01:17:03.899Z,10.4
2022-11-16T01:22:03.883Z,10.4
2022-11-16T01:27:03.857Z,10.4
2022-11-16T01:32:03.849Z,10.4
2022-11-16T01:37:03.824Z,10.4
2022-11-16T01:42:03.813Z,10.4
2022-11-16T01:47:03.772Z,10.4
2022-11-16T01:52:03.763Z,10.4
2022-11-16T01:57:03.737Z,10.4
2022-11-16T02:02:03.721Z,10.4
2022-11-16T02:07:03.699Z,10.4
2022-11-16T02:12:03.680Z,10.4
2022-11-16T02:17:03.898Z,10.4
2022-11-16T02:22:03.651Z,10.4
2022-11-16T02:27:03.618Z,10.4
2022-11-16T02:32:03.596Z,10.4
2022-11-16T02:37:03.581Z,10.5
2022-11-16T02:42:03.564Z,10.5
2022-11-16T02:47:03.543Z,10.5
2022-11-16T02:52:03.520Z,10.6
2022-11-16T02:57:03.498Z,10.5
2022-11-16T03:02:03.483Z,10.5
2022-11-16T03:07:03.465Z,10.6
2022-11-16T03:12:03.449Z,10.6
2022-11-16T03:17:03.440Z,10.5
2022-11-16T03:22:03.411Z,10.6
2022-11-16T03:27:03.386Z,10.6
2022-11-16T03:32:03.363Z,10.6
2022-11-16T03:37:03.342Z,10.6
2022-11-16T03:42:03.336Z,10.6
2022-11-16T03:47:03.306Z,10.6
2022-11-16T03:52:03.289Z,10.6
2022-11-16T03:57:03.280Z,10.6
2022-11-16T04:02:03.240Z,10.7
2022-11-16T04:07:03.221Z,10.7
2022-11-16T04:12:03.202Z,10.8
2022-11-16T04:17:03.181Z,10.8
2022-11-16T04:22:03.158Z,10.9
2022-11-16T04:27:03.148Z,10.9
2022-11-16T04:32:03.135Z,11
2022-11-16T04:37:03.112Z,11
2022-11-16T04:42:03.088Z,11
2022-11-16T04:47:03.064Z,11
2022-11-16T04:52:03.045Z,11
2022-11-16T04:57:03.024Z,11
2022-11-16T05:02:03.004Z,11
2022-11-16T05:07:02.995Z,11
2022-11-16T05:12:02.961Z,11
2022-11-16T05:17:02.947Z,11
2022-11-16T05:22:02.930Z,11
2022-11-16T05:27:02.927Z,10.9
2022-11-16T05:32:02.885Z,10.9
2022-11-16T05:37:02.886Z,10.9
2022-11-16T05:42:02.851Z,10.9
2022-11-16T05:47:02.829Z,10.9
2022-11-16T05:52:02.810Z,10.8
2022-11-16T05:57:02.906Z,10.8
2022-11-16T06:02:02.764Z,10.8
2022-11-16T06:12:02.740Z,10.7
2022-11-16T06:22:02.688Z,10.6
2022-11-16T06:27:02.685Z,10.5
2022-11-16T06:32:02.654Z,10.5
2022-11-16T06:37:02.659Z,10.4
2022-11-16T06:42:02.618Z,10.3
2022-11-16T06:47:02.607Z,10.3
2022-11-16T06:52:02.573Z,10.3
2022-11-16T06:57:02.578Z,10.3
2022-11-16T07:02:02.525Z,10.3
2022-11-16T07:07:02.524Z,10.3
2022-11-16T07:12:02.516Z,10.3
2022-11-16T07:17:02.473Z,10.3
2022-11-16T07:22:02.457Z,10.3
2022-11-16T07:27:02.431Z,10.3
2022-11-16T07:32:02.430Z,10.4
2022-11-16T07:37:02.394Z,10.4
2022-11-16T07:42:02.390Z,10.5
2022-11-16T07:47:02.360Z,10.5
2022-11-16T07:52:02.364Z,10.6
2022-11-16T07:57:02.319Z,10.6
2022-11-16T08:02:02.304Z,10.7
2022-11-16T08:07:02.318Z,10.8
2022-11-16T08:12:02.287Z,10.9
2022-11-16T08:17:02.237Z,11.1
2022-11-16T08:22:02.216Z,11.3
2022-11-16T08:27:02.206Z,11.5
2022-11-16T08:32:02.182Z,11.6
2022-11-16T08:37:02.215Z,11.9
2022-11-16T08:42:02.141Z,11.8
2022-11-16T08:47:02.153Z,11.9
2022-11-16T08:52:02.096Z,12
2022-11-16T08:57:02.079Z,12.2
2022-11-16T09:02:02.055Z,12.4
2022-11-16T09:07:02.036Z,12.4
2022-11-16T09:12:02.011Z,12.4
2022-11-16T09:17:01.990Z,12.6
2022-11-16T09:22:01.970Z,12.7
2022-11-16T09:27:01.953Z,13.1
2022-11-16T09:32:01.939Z,14.5
2022-11-16T09:37:01.919Z,15
2022-11-16T09:42:01.939Z,16.2
2022-11-16T09:47:01.898Z,17.1
2022-11-16T09:52:01.851Z,18
2022-11-16T09:57:01.829Z,18.1
2022-11-16T10:02:01.845Z,18.5
2022-11-16T10:07:01.785Z,19
2022-11-16T10:12:01.763Z,20
2022-11-16T10:17:01.742Z,19.7
2022-11-16T10:22:01.722Z,20.2
2022-11-16T10:27:01.703Z,20.9
2022-11-16T10:32:01.673Z,21.5
2022-11-16T10:37:01.664Z,20.3
2022-11-16T10:42:01.637Z,18.4
2022-11-16T10:47:01.657Z,17.3
2022-11-16T10:52:01.604Z,16.8
2022-11-16T10:57:01.597Z,18.2
2022-11-16T11:02:01.541Z,19.8
2022-11-16T11:07:01.519Z,20.8
2022-11-16T11:12:01.497Z,21.7
2022-11-16T11:17:01.485Z,22.4
2022-11-16T11:22:01.475Z,21.6
2022-11-16T11:27:01.441Z,20.4
2022-11-16T11:32:01.421Z,19.1
2022-11-16T11:42:01.386Z,17.5
2022-11-16T11:47:01.355Z,17.1
2022-11-16T11:52:01.333Z,16.9
2022-11-16T11:57:01.312Z,16.5
2022-11-16T12:02:01.291Z,16.2
2022-11-16T12:07:01.294Z,16.3
2022-11-16T12:12:01.243Z,16.2
2022-11-16T12:17:01.224Z,16.1
2022-11-16T12:22:01.205Z,16.1
2022-11-16T12:27:01.238Z,16.1
2022-11-16T12:32:01.168Z,16
2022-11-16T12:37:01.152Z,15.9
2022-11-16T12:42:01.124Z,15.6
2022-11-16T12:47:01.115Z,15.5
2022-11-16T12:52:01.078Z,15.5
2022-11-16T12:57:01.065Z,15.6
2022-11-16T13:02:01.052Z,15.5
2022-11-16T13:07:01.025Z,15.5
2022-11-16T13:12:01.004Z,15.4
2022-11-16T13:17:00.981Z,15.2
2022-11-16T13:22:00.956Z,15
2022-11-16T13:27:00.936Z,14.8
2022-11-16T13:32:00.950Z,14.6
2022-11-16T13:37:00.907Z,14.4
2022-11-16T13:42:00.876Z,14.3
2022-11-16T13:47:00.945Z,14.2
2022-11-16T13:52:00.840Z,14
2022-11-16T13:57:00.838Z,14
2022-11-16T14:02:00.814Z,14
2022-11-16T14:07:00.772Z,14
2022-11-16T14:12:00.748Z,13.9
2022-11-16T14:17:00.733Z,13.9
2022-11-16T14:22:00.714Z,13.8
2022-11-16T14:27:00.690Z,13.7
2022-11-16T14:32:00.665Z,13.7
2022-11-16T14:37:00.640Z,13.7
2022-11-16T14:47:00.596Z,13.7
2022-11-16T14:52:00.587Z,13.6
2022-11-16T14:57:00.565Z,13.4
2022-11-16T15:02:00.542Z,13.3
2022-11-16T15:07:00.523Z,13.1
2022-11-16T15:12:00.500Z,13
2022-11-16T15:17:00.512Z,12.9
2022-11-16T15:22:00.474Z,12.7
2022-11-16T15:27:00.437Z,12.6
2022-11-16T15:32:00.423Z,12.5
2022-11-16T15:37:00.475Z,12.3
2022-11-16T15:42:00.399Z,12.2
2022-11-16T15:47:00.364Z,12.1
2022-11-16T15:52:00.436Z,11.9
2022-11-16T15:57:00.332Z,11.8
2022-11-16T16:02:00.376Z,11.7
2022-11-16T16:07:00.290Z,11.7
2022-11-16T16:12:00.262Z,11.6
2022-11-16T16:17:00.239Z,11.5
2022-11-16T16:22:00.228Z,11.4
2022-11-16T16:27:00.203Z,11.4
2022-11-16T16:32:00.216Z,11.2
2022-11-16T16:37:00.169Z,11.2
2022-11-16T16:42:00.164Z,11.2
2022-11-16T16:47:00.128Z,11.1
2022-11-16T16:52:00.118Z,11.1
2022-11-16T16:57:00.085Z,11.1
2022-11-16T17:02:00.096Z,11
2022-11-16T17:07:00.073Z,11
2022-11-16T17:12:00.031Z,11
2022-11-16T17:17:00.063Z,10.9
2022-11-16T17:22:00.190Z,10.9
2022-11-16T17:27:00.027Z,10.9
2022-11-16T17:31:59.990Z,10.8
2022-11-16T17:36:59.960Z,10.7
2022-11-16T17:46:59.898Z,10.6
2022-11-16T17:51:59.949Z,10.6
2022-11-16T17:56:59.855Z,10.6
2022-11-16T18:01:59.930Z,10.6
2022-11-16T18:06:59.822Z,10.5
2022-11-16T18:11:59.816Z,10.4
2022-11-16T18:16:59.784Z,10.3
2022-11-16T18:21:59.755Z,10.3
2022-11-16T18:26:59.828Z,10.2
2022-11-16T18:31:59.729Z,10.1
2022-11-16T18:36:59.719Z,10
2022-11-16T18:41:59.763Z,9.9
2022-11-16T18:46:59.697Z,9.9
2022-11-16T18:51:59.625Z,9.8
2022-11-16T18:56:59.612Z,9.7
2022-11-16T19:01:59.634Z,9.6
2022-11-16T19:06:59.582Z,9.5
2022-11-16T19:11:59.615Z,9.5
2022-11-16T19:16:59.612Z,9.4
2022-11-16T19:21:59.539Z,9.3
2022-11-16T19:26:59.532Z,9.3
2022-11-16T19:31:59.471Z,9.4
2022-11-16T19:36:59.590Z,9.5
2022-11-16T19:41:59.561Z,9.6
2022-11-16T19:46:59.478Z,9.6
2022-11-16T19:51:59.403Z,9.7
2022-11-16T19:56:59.430Z,9.6
2022-11-16T20:01:59.453Z,9.5
2022-11-16T20:06:59.340Z,9.4
2022-11-16T20:11:59.322Z,9.3
2022-11-16T20:16:59.319Z,9.3
2022-11-16T20:21:59.280Z,9.3
2022-11-16T20:26:59.331Z,9.3
2022-11-16T20:31:59.305Z,9.5
2022-11-16T20:36:59.278Z,9.6
2022-11-16T20:41:59.204Z,9.5
2022-11-16T20:46:59.236Z,9.4
2022-11-16T20:51:59.261Z,9.3
2022-11-16T20:56:59.137Z,9.3
2022-11-16T21:01:59.133Z,9.3
2022-11-16T21:06:59.103Z,9.3
2022-11-16T21:11:59.136Z,9.3
2022-11-16T21:16:59.176Z,9.3
2022-11-16T21:21:59.227Z,9.3
2022-11-16T21:26:59.169Z,9.3
2022-11-16T21:31:59.031Z,9.3
2022-11-16T21:36:59.036Z,9.2
2022-11-16T21:41:58.977Z,9.2
2022-11-16T21:46:58.953Z,9.2
2022-11-16T21:51:58.926Z,9.3
2022-11-16T21:56:58.912Z,9.3
2022-11-16T22:01:59.002Z,9.3
2022-11-16T22:11:58.849Z,9.4
2022-11-16T22:16:58.872Z,9.5
2022-11-16T22:21:58.811Z,9.7
2022-11-16T22:26:58.799Z,9.7
2022-11-16T22:31:58.772Z,9.9
2022-11-16T22:36:58.758Z,9.8
2022-11-16T22:41:58.731Z,9.8
2022-11-16T22:46:58.791Z,9.9
2022-11-16T22:51:58.753Z,9.9
2022-11-16T22:56:58.677Z,10
2022-11-16T23:01:58.671Z,10.1
2022-11-16T23:06:58.639Z,10.2
2022-11-16T23:11:58.611Z,10.1
2022-11-16T23:16:58.603Z,10.1
2022-11-16T23:21:58.581Z,10.1
2022-11-16T23:26:58.590Z,10.2
2022-11-16T23:31:58.674Z,10.1
2022-11-16T23:36:58.523Z,10.1
2022-11-16T23:41:58.581Z,10
2022-11-16T23:46:58.495Z,10.1
2022-11-16T23:51:58.459Z,10
2022-11-16T23:56:58.442Z,10
